createdAt,value
2019-02-25T00:01:09.061Z,99.90
2019-02-25T00:03:38.474Z,99.90
2019-02-25T00:06:07.804Z,99.90
2019-02-25T00:08:37.111Z,99.90
2019-02-25T00:11:06.489Z,99.90
2019-02-25T00:13:35.844Z,99.90
2019-02-25T00:16:05.294Z,99.90
2019-02-25T00:18:34.670Z,99.90
2019-02-25T00:21:04.057Z,99.90
2019-02-25T00:23:33.389Z,99.90
2019-02-25T00:26:02.795Z,99.90
2019-02-25T00:28:32.120Z,99.90
2019-02-25T00:31:01.349Z,99.90
2019-02-25T00:33:30.735Z,99.90
2019-02-25T00:36:00.045Z,99.90
2019-02-25T00:38:29.408Z,99.90
2019-02-25T00:40:58.774Z,99.90
2019-02-25T00:43:28.050Z,99.90
2019-02-25T00:45:57.343Z,99.90
2019-02-25T00:48:26.716Z,99.90
2019-02-25T00:50:56.048Z,99.90
2019-02-25T00:53:25.398Z,99.90
2019-02-25T00:55:54.689Z,99.90
2019-02-25T00:58:24.015Z,99.90
2019-02-25T01:00:53.389Z,99.90
2019-02-25T01:03:22.688Z,99.90
2019-02-25T01:05:52.017Z,99.90
2019-02-25T01:08:21.295Z,99.90
2019-02-25T01:10:50.634Z,99.90
2019-02-25T01:13:20.004Z,99.90
2019-02-25T01:15:49.390Z,99.90
2019-02-25T01:18:18.737Z,99.90
2019-02-25T01:20:48.112Z,99.90
2019-02-25T01:23:17.521Z,99.90
2019-02-25T01:25:46.814Z,99.90
2019-02-25T01:28:16.113Z,99.90
2019-02-25T01:30:45.420Z,99.90
2019-02-25T01:33:15.056Z,99.90
2019-02-25T01:35:44.412Z,99.90
2019-02-25T01:38:15.601Z,99.90
2019-02-25T01:40:44.670Z,99.90
2019-02-25T01:43:14.046Z,99.90
2019-02-25T01:45:43.464Z,99.90
2019-02-25T01:48:12.710Z,99.90
2019-02-25T01:50:42.058Z,99.90
2019-02-25T01:53:11.322Z,99.90
2019-02-25T01:55:40.643Z,99.90
2019-02-25T01:58:10.045Z,99.90
2019-02-25T02:00:39.467Z,99.90
2019-02-25T02:03:08.851Z,99.90
2019-02-25T02:05:38.172Z,99.90
2019-02-25T02:08:07.557Z,99.90
2019-02-25T02:10:36.862Z,99.90
2019-02-25T02:13:13.920Z,99.90
2019-02-25T02:15:37.211Z,99.90
2019-02-25T02:18:06.540Z,99.90
2019-02-25T02:20:35.880Z,99.90
2019-02-25T02:23:05.167Z,99.90
2019-02-25T02:25:34.557Z,99.90
2019-02-25T02:28:04.080Z,99.90
2019-02-25T02:30:33.447Z,99.90
2019-02-25T02:33:02.775Z,99.90
2019-02-25T02:35:32.233Z,99.90
2019-02-25T02:38:01.618Z,99.90
2019-02-25T02:40:30.911Z,99.90
2019-02-25T02:43:00.259Z,99.90
2019-02-25T02:45:41.795Z,99.90
2019-02-25T02:48:24.481Z,99.90
2019-02-25T02:50:53.913Z,99.90
2019-02-25T02:53:23.277Z,99.90
2019-02-25T02:55:52.608Z,99.90
2019-02-25T02:58:22.213Z,99.90
2019-02-25T03:00:51.568Z,99.90
2019-02-25T03:03:20.929Z,99.90
2019-02-25T03:05:50.243Z,99.90
2019-02-25T03:08:19.598Z,99.90
2019-02-25T03:10:48.891Z,99.90
2019-02-25T03:13:18.401Z,99.90
2019-02-25T03:15:47.794Z,99.90
2019-02-25T03:18:17.181Z,99.90
2019-02-25T03:20:46.469Z,99.90
2019-02-25T03:23:15.850Z,99.90
2019-02-25T03:25:45.252Z,99.90
2019-02-25T03:28:14.716Z,99.90
2019-02-25T03:30:44.124Z,99.90
2019-02-25T03:33:13.378Z,99.90
2019-02-25T03:35:42.750Z,99.90
2019-02-25T03:38:12.036Z,99.90
2019-02-25T03:40:41.387Z,99.90
2019-02-25T03:43:10.758Z,99.90
2019-02-25T03:45:40.058Z,99.90
2019-02-25T03:48:09.422Z,99.90
2019-02-25T03:50:38.793Z,99.90
2019-02-25T03:53:08.166Z,99.90
2019-02-25T03:55:37.530Z,99.90
2019-02-25T03:58:06.904Z,99.90
2019-02-25T04:00:36.329Z,99.90
2019-02-25T04:03:05.687Z,99.90
2019-02-25T04:05:35.028Z,99.90
2019-02-25T04:08:04.410Z,99.90
2019-02-25T04:10:33.805Z,99.90
2019-02-25T04:13:03.095Z,99.90
2019-02-25T04:15:38.775Z,99.90
2019-02-25T04:18:08.103Z,99.90
2019-02-25T04:20:37.457Z,99.90
2019-02-25T04:23:06.837Z,99.90
2019-02-25T04:25:36.190Z,99.90
2019-02-25T04:28:05.469Z,99.90
2019-02-25T04:30:34.862Z,99.90
2019-02-25T04:33:04.228Z,99.90
2019-02-25T04:35:33.549Z,99.90
2019-02-25T04:38:03.154Z,99.90
2019-02-25T04:40:32.545Z,99.90
2019-02-25T04:43:01.908Z,99.90
2019-02-25T04:45:31.279Z,99.90
2019-02-25T04:48:00.687Z,99.90
2019-02-25T04:50:30.025Z,99.90
2019-02-25T04:52:59.394Z,99.90
2019-02-25T04:55:28.751Z,99.90
2019-02-25T04:57:57.947Z,99.90
2019-02-25T05:00:27.317Z,99.90
2019-02-25T05:02:56.694Z,99.90
2019-02-25T05:05:26.031Z,99.90
2019-02-25T05:07:55.383Z,99.90
2019-02-25T05:10:25.182Z,99.90
2019-02-25T05:12:59.545Z,99.90
2019-02-25T05:15:29.465Z,99.90
2019-02-25T05:17:58.838Z,99.90
2019-02-25T05:20:28.211Z,99.90
2019-02-25T05:22:57.604Z,99.90
2019-02-25T05:25:27.434Z,99.90
2019-02-25T05:27:56.726Z,99.90
2019-02-25T05:30:26.131Z,99.90
2019-02-25T05:32:55.490Z,99.90
2019-02-25T05:35:24.871Z,99.90
2019-02-25T05:37:54.300Z,99.90
2019-02-25T05:40:42.751Z,99.90
2019-02-25T05:43:12.562Z,99.90
2019-02-25T05:45:41.949Z,99.90
2019-02-25T05:48:11.325Z,99.90
2019-02-25T05:50:40.677Z,99.90
2019-02-25T05:53:10.037Z,99.90
2019-02-25T05:55:39.413Z,99.90
2019-02-25T05:58:08.861Z,99.90
2019-02-25T06:00:38.190Z,99.90
2019-02-25T06:03:14.996Z,99.90
2019-02-25T06:05:44.361Z,99.90
2019-02-25T06:08:13.716Z,99.90
2019-02-25T06:10:43.155Z,99.90
2019-02-25T06:13:13.415Z,99.90
2019-02-25T06:15:42.785Z,99.80
2019-02-25T06:18:12.132Z,99.90
2019-02-25T06:20:41.494Z,99.90
2019-02-25T06:23:10.941Z,99.90
2019-02-25T06:25:40.339Z,99.30
2019-02-25T06:28:09.786Z,99.90
2019-02-25T06:30:39.177Z,99.50
2019-02-25T06:33:08.547Z,99.80
2019-02-25T06:35:39.423Z,98.60
2019-02-25T06:38:08.742Z,99.90
2019-02-25T06:40:38.136Z,99.10
2019-02-25T06:43:07.607Z,98.90
2019-02-25T06:45:36.989Z,98.90
2019-02-25T06:48:06.346Z,99.90
2019-02-25T06:50:35.726Z,99.80
2019-02-25T06:53:04.980Z,99.90
2019-02-25T06:55:34.342Z,99.90
2019-02-25T06:58:03.660Z,99.90
2019-02-25T07:00:33.046Z,99.90
2019-02-25T07:03:02.428Z,99.90
2019-02-25T07:05:48.354Z,99.90
2019-02-25T07:08:39.661Z,99.90
2019-02-25T07:11:23.929Z,99.90
2019-02-25T07:14:08.145Z,99.90
2019-02-25T07:16:47.646Z,99.90
2019-02-25T07:19:34.955Z,99.90
2019-02-25T07:22:23.335Z,99.90
2019-02-25T07:25:11.655Z,99.90
2019-02-25T07:28:05.811Z,99.90
2019-02-25T07:31:09.280Z,99.90
2019-02-25T07:33:57.686Z,99.90
2019-02-25T07:36:45.043Z,99.90
2019-02-25T07:39:32.058Z,99.90
2019-02-25T07:42:19.491Z,99.90
2019-02-25T07:45:13.796Z,99.90
2019-02-25T07:47:51.436Z,99.90
2019-02-25T07:50:33.529Z,99.90
2019-02-25T07:53:36.962Z,99.90
2019-02-25T07:56:40.653Z,99.90
2019-02-25T07:59:28.907Z,99.90
2019-02-25T08:02:16.199Z,99.90
2019-02-25T08:05:06.045Z,99.90
2019-02-25T08:07:52.959Z,99.90
2019-02-25T08:10:40.234Z,99.10
2019-02-25T08:13:33.963Z,98.50
2019-02-25T08:16:13.643Z,97.60
2019-02-25T08:19:00.825Z,99.10
2019-02-25T08:21:40.747Z,99.40
2019-02-25T08:24:16.483Z,97.90
2019-02-25T08:27:07.637Z,96.00
2019-02-25T08:29:42.625Z,95.60
2019-02-25T08:32:30.079Z,95.90
2019-02-25T08:35:16.870Z,96.10
2019-02-25T08:38:14.974Z,95.80
2019-02-25T08:41:01.232Z,94.30
2019-02-25T08:43:34.998Z,94.10
2019-02-25T08:46:26.373Z,96.50
2019-02-25T08:49:09.253Z,96.70
2019-02-25T08:51:38.561Z,97.40
2019-02-25T08:54:07.933Z,98.10
2019-02-25T08:56:37.235Z,97.10
2019-02-25T08:59:06.531Z,96.10
2019-02-25T09:01:35.898Z,96.00
2019-02-25T09:04:05.214Z,97.60
2019-02-25T09:06:34.580Z,96.80
2019-02-25T09:09:05.244Z,94.10
2019-02-25T09:11:34.554Z,93.90
2019-02-25T09:14:03.950Z,94.60
2019-02-25T09:16:33.329Z,94.90
2019-02-25T09:19:02.674Z,94.30
2019-02-25T09:21:32.272Z,94.40
2019-02-25T09:24:01.709Z,94.40
2019-02-25T09:26:30.918Z,94.00
2019-02-25T09:29:00.295Z,94.50
2019-02-25T09:31:29.699Z,95.70
2019-02-25T09:33:58.983Z,97.60
2019-02-25T09:36:28.349Z,98.30
2019-02-25T09:38:57.659Z,96.10
2019-02-25T09:41:29.904Z,99.20
2019-02-25T09:43:58.045Z,98.50
2019-02-25T09:46:27.629Z,97.50
2019-02-25T09:48:56.907Z,98.20
2019-02-25T09:51:26.197Z,99.90
2019-02-25T09:53:55.491Z,98.80
2019-02-25T09:56:24.864Z,99.20
2019-02-25T09:58:54.168Z,98.30
2019-02-25T10:01:23.530Z,96.30
2019-02-25T10:03:52.934Z,97.00
2019-02-25T10:06:22.272Z,97.10
2019-02-25T10:08:51.596Z,96.00
2019-02-25T10:11:20.832Z,96.20
2019-02-25T10:13:51.800Z,95.50
2019-02-25T10:16:21.384Z,93.60
2019-02-25T10:18:50.765Z,92.70
2019-02-25T10:21:20.165Z,93.10
2019-02-25T10:23:49.559Z,93.70
2019-02-25T10:26:18.959Z,92.80
2019-02-25T10:28:48.346Z,92.60
2019-02-25T10:31:17.740Z,91.90
2019-02-25T10:33:47.195Z,92.80
2019-02-25T10:36:16.452Z,93.20
2019-02-25T10:38:45.924Z,93.60
2019-02-25T10:41:17.169Z,94.20
2019-02-25T10:43:46.336Z,93.40
2019-02-25T10:46:17.574Z,94.70
2019-02-25T10:48:47.441Z,94.20
2019-02-25T10:51:17.746Z,93.80
2019-02-25T10:53:47.888Z,94.30
2019-02-25T10:59:08.914Z,95.00
2019-02-25T11:01:39.336Z,93.70
2019-02-25T11:04:09.296Z,94.10
2019-02-25T11:06:38.693Z,93.30
2019-02-25T11:09:31.809Z,92.30
2019-02-25T11:12:01.203Z,92.40
2019-02-25T11:14:33.339Z,92.40
2019-02-25T11:17:02.401Z,92.40
2019-02-25T11:19:32.945Z,91.60
2019-02-25T11:22:02.434Z,92.10
2019-02-25T11:24:31.778Z,91.90
2019-02-25T11:27:02.659Z,90.50
2019-02-25T11:29:32.030Z,91.70
2019-02-25T11:32:01.405Z,91.00
2019-02-25T11:34:31.627Z,91.40
2019-02-25T11:37:01.667Z,90.00
2019-02-25T11:39:32.607Z,90.40
2019-02-25T11:42:03.397Z,90.90
2019-02-25T11:44:33.052Z,89.40
2019-02-25T11:47:02.406Z,90.70
2019-02-25T11:49:31.755Z,90.00
2019-02-25T11:52:01.145Z,90.00
2019-02-25T11:54:30.509Z,89.20
2019-02-25T11:57:00.062Z,90.40
2019-02-25T11:59:30.760Z,88.70
2019-02-25T12:02:00.170Z,87.80
2019-02-25T12:04:29.564Z,88.00
2019-02-25T12:06:58.870Z,86.30
2019-02-25T12:09:28.218Z,89.90
2019-02-25T12:11:57.507Z,88.40
2019-02-25T12:14:26.908Z,88.90
2019-02-25T12:16:56.226Z,90.20
2019-02-25T12:19:25.650Z,88.20
2019-02-25T12:21:55.039Z,86.10
2019-02-25T12:24:24.436Z,87.90
2019-02-25T12:26:53.805Z,87.10
2019-02-25T12:29:26.162Z,88.60
2019-02-25T12:31:55.525Z,89.10
2019-02-25T12:34:24.899Z,88.60
2019-02-25T12:36:54.295Z,86.70
2019-02-25T12:39:23.806Z,87.80
2019-02-25T12:41:53.170Z,88.10
2019-02-25T12:44:22.569Z,87.70
2019-02-25T12:46:51.921Z,83.90
2019-02-25T12:49:21.302Z,84.40
2019-02-25T12:51:50.666Z,83.30
2019-02-25T12:54:20.077Z,86.30
2019-02-25T12:56:49.439Z,86.40
2019-02-25T12:59:18.848Z,85.40
2019-02-25T13:01:48.232Z,84.60
2019-02-25T13:04:17.540Z,84.30
2019-02-25T13:06:46.945Z,82.80
2019-02-25T13:09:16.233Z,84.20
2019-02-25T13:11:45.594Z,83.40
2019-02-25T13:14:14.903Z,81.50
2019-02-25T13:16:44.285Z,83.80
2019-02-25T13:19:13.643Z,82.20
2019-02-25T13:21:42.998Z,78.90
2019-02-25T13:24:12.356Z,78.40
2019-02-25T13:26:41.833Z,78.40
2019-02-25T13:29:11.133Z,78.90
2019-02-25T13:31:40.501Z,78.40
2019-02-25T13:34:09.817Z,79.40
2019-02-25T13:36:39.144Z,77.10
2019-02-25T13:39:08.770Z,78.90
2019-02-25T13:41:38.269Z,78.30
2019-02-25T13:44:07.566Z,77.90
2019-02-25T13:46:36.917Z,77.30
2019-02-25T13:49:06.333Z,75.10
2019-02-25T13:51:35.688Z,75.90
2019-02-25T13:54:05.042Z,75.60
2019-02-25T13:56:34.424Z,77.30
2019-02-25T13:59:03.803Z,75.80
2019-02-25T14:01:33.353Z,75.90
2019-02-25T14:04:02.701Z,75.20
2019-02-25T14:06:32.053Z,75.10
2019-02-25T14:09:01.447Z,74.90
2019-02-25T14:11:30.793Z,78.10
2019-02-25T14:14:00.162Z,74.90
2019-02-25T14:16:29.804Z,76.60
2019-02-25T14:18:59.106Z,75.60
2019-02-25T14:21:28.514Z,76.60
2019-02-25T14:23:59.806Z,75.50
2019-02-25T14:26:28.904Z,76.90
2019-02-25T14:28:58.294Z,76.90
2019-02-25T14:31:29.940Z,77.40
2019-02-25T14:33:58.681Z,75.30
2019-02-25T14:36:28.571Z,74.70
2019-02-25T14:38:59.439Z,77.50
2019-02-25T14:41:28.974Z,76.00
2019-02-25T14:43:58.871Z,73.40
2019-02-25T14:46:28.343Z,73.80
2019-02-25T14:48:57.704Z,73.70
2019-02-25T14:51:27.046Z,75.40
2019-02-25T14:53:56.860Z,73.90
2019-02-25T14:56:26.476Z,73.50
2019-02-25T14:58:55.856Z,72.20
2019-02-25T15:01:27.418Z,72.70
2019-02-25T15:03:58.051Z,71.60
2019-02-25T15:06:28.135Z,71.40
2019-02-25T15:08:59.588Z,71.50
2019-02-25T15:11:29.476Z,70.70
2019-02-25T15:13:59.467Z,71.50
2019-02-25T15:16:29.033Z,70.50
2019-02-25T15:18:58.644Z,70.80
2019-02-25T15:21:31.439Z,71.70
2019-02-25T15:24:02.623Z,71.60
2019-02-25T15:26:32.107Z,71.40
2019-02-25T15:29:02.910Z,71.80
2019-02-25T15:31:46.316Z,71.60
2019-02-25T15:34:17.199Z,71.20
2019-02-25T15:36:47.053Z,72.80
2019-02-25T15:39:16.935Z,74.20
2019-02-25T15:42:05.387Z,75.00
2019-02-25T15:44:35.084Z,75.10
2019-02-25T15:47:08.485Z,76.00
2019-02-25T15:49:37.963Z,77.30
2019-02-25T15:52:07.333Z,77.40
2019-02-25T15:54:37.184Z,77.80
2019-02-25T15:57:07.783Z,77.20
2019-02-25T15:59:37.195Z,77.70
2019-02-25T16:02:07.728Z,78.40
2019-02-25T16:04:38.285Z,77.60
2019-02-25T16:07:11.869Z,77.70
2019-02-25T16:09:41.419Z,78.30
2019-02-25T16:12:10.843Z,78.30
2019-02-25T16:14:41.877Z,79.80
2019-02-25T16:17:13.728Z,80.60
2019-02-25T16:19:47.483Z,79.90
2019-02-25T16:22:14.288Z,80.50
2019-02-25T16:24:43.774Z,80.70
2019-02-25T16:27:13.664Z,81.30
2019-02-25T16:29:44.756Z,81.20
2019-02-25T16:32:15.337Z,81.70
2019-02-25T16:34:45.196Z,81.80
2019-02-25T16:37:14.599Z,81.80
2019-02-25T16:39:43.967Z,82.30
2019-02-25T16:42:13.275Z,84.10
2019-02-25T16:44:42.711Z,83.30
2019-02-25T16:47:13.816Z,83.80
2019-02-25T16:49:43.243Z,85.10
2019-02-25T16:52:13.858Z,83.80
2019-02-25T16:54:43.559Z,84.40
2019-02-25T16:57:14.255Z,87.20
2019-02-25T16:59:43.914Z,88.20
2019-02-25T17:02:14.138Z,89.90
2019-02-25T17:04:43.582Z,89.40
2019-02-25T17:07:14.354Z,89.30
2019-02-25T17:09:44.267Z,90.00
2019-02-25T17:12:13.951Z,92.00
2019-02-25T17:14:43.750Z,93.00
2019-02-25T17:17:13.124Z,93.80
2019-02-25T17:19:42.528Z,94.90
2019-02-25T17:22:11.860Z,96.30
2019-02-25T17:24:43.448Z,96.10
2019-02-25T17:27:14.197Z,96.90
2019-02-25T17:29:43.747Z,98.90
2019-02-25T17:32:14.602Z,98.40
2019-02-25T17:34:44.141Z,99.90
2019-02-25T17:37:14.831Z,99.90
2019-02-25T17:39:44.704Z,99.90
2019-02-25T17:42:14.578Z,99.90
2019-02-25T17:44:44.438Z,99.90
2019-02-25T17:47:23.643Z,99.90
2019-02-25T17:49:44.840Z,99.90
2019-02-25T17:52:16.146Z,99.90
2019-02-25T17:54:45.493Z,99.90
2019-02-25T17:57:15.263Z,99.90
2019-02-25T17:59:46.214Z,99.90
2019-02-25T18:02:15.680Z,99.90
2019-02-25T18:04:46.924Z,99.90
2019-02-25T18:07:16.174Z,99.90
2019-02-25T18:09:46.504Z,99.90
2019-02-25T18:12:15.894Z,99.90
2019-02-25T18:14:45.804Z,99.90
2019-02-25T18:17:17.513Z,99.90
2019-02-25T18:19:50.148Z,99.90
2019-02-25T18:22:20.580Z,99.90
2019-02-25T18:24:50.381Z,99.90
2019-02-25T18:27:22.355Z,99.90
2019-02-25T18:29:52.555Z,99.90
2019-02-25T18:32:22.853Z,99.90
2019-02-25T18:34:52.625Z,99.90
2019-02-25T18:37:24.299Z,99.90
2019-02-25T18:39:56.684Z,99.90
2019-02-25T18:42:26.465Z,99.90
2019-02-25T18:44:56.142Z,99.90
2019-02-25T18:47:27.206Z,99.90
2019-02-25T18:49:58.724Z,99.90
2019-02-25T18:52:29.652Z,99.90
2019-02-25T18:55:02.825Z,99.90
2019-02-25T18:57:31.529Z,99.90
2019-02-25T19:00:03.867Z,99.90
2019-02-25T19:02:33.416Z,99.90
2019-02-25T19:05:04.500Z,99.90
2019-02-25T19:07:34.913Z,99.90
2019-02-25T19:10:05.214Z,99.90
2019-02-25T19:12:35.406Z,99.90
2019-02-25T19:15:07.150Z,99.90
2019-02-25T19:17:43.330Z,99.90
2019-02-25T19:20:13.233Z,99.90
2019-02-25T19:22:45.027Z,99.90
2019-02-25T19:25:18.240Z,99.90
2019-02-25T19:27:50.616Z,99.90
2019-02-25T19:30:22.300Z,99.90
2019-02-25T19:32:52.188Z,99.90
2019-02-25T19:35:21.923Z,99.90
2019-02-25T19:37:52.631Z,99.90
2019-02-25T19:40:24.341Z,99.90
2019-02-25T19:42:54.253Z,99.90
2019-02-25T19:45:24.436Z,99.90
2019-02-25T19:47:55.982Z,99.90
2019-02-25T19:50:27.221Z,99.90
2019-02-25T19:53:00.420Z,99.90
2019-02-25T19:55:27.629Z,99.90
2019-02-25T19:57:57.055Z,99.90
2019-02-25T20:00:28.246Z,99.90
2019-02-25T20:03:05.201Z,99.90
2019-02-25T20:05:29.941Z,99.90
2019-02-25T20:07:59.427Z,99.90
2019-02-25T20:10:30.664Z,99.90
2019-02-25T20:13:05.723Z,99.90
2019-02-25T20:15:37.629Z,99.90
2019-02-25T20:18:07.218Z,99.90
2019-02-25T20:20:38.920Z,99.90
2019-02-25T20:23:08.919Z,99.90
2019-02-25T20:25:48.861Z,99.90
2019-02-25T20:28:18.728Z,99.90
2019-02-25T20:30:51.510Z,99.90
2019-02-25T20:33:23.618Z,99.90
2019-02-25T20:35:53.526Z,99.90
2019-02-25T20:38:27.153Z,99.90
2019-02-25T20:40:57.868Z,99.90
2019-02-25T20:43:28.691Z,99.90
2019-02-25T20:46:01.091Z,99.90
2019-02-25T20:48:30.345Z,99.90
2019-02-25T20:51:01.786Z,99.90
2019-02-25T20:53:32.214Z,99.90
2019-02-25T20:56:01.998Z,99.90
2019-02-25T20:58:31.416Z,99.90
2019-02-25T21:01:00.853Z,99.90
2019-02-25T21:03:50.437Z,99.90
2019-02-25T21:06:21.263Z,99.90
2019-02-25T21:08:50.820Z,99.90
2019-02-25T21:11:20.322Z,99.90
2019-02-25T21:13:49.748Z,99.90
2019-02-25T21:16:19.148Z,99.90
2019-02-25T21:18:49.177Z,99.90
2019-02-25T21:21:19.740Z,99.90
2019-02-25T21:23:50.644Z,99.90
2019-02-25T21:26:20.087Z,99.90
2019-02-25T21:28:49.574Z,99.90
2019-02-25T21:31:20.893Z,99.90
2019-02-25T21:33:52.298Z,99.90
2019-02-25T21:36:21.091Z,99.90
2019-02-25T21:38:51.699Z,99.90
2019-02-25T21:41:21.545Z,99.90
2019-02-25T21:43:51.789Z,99.90
2019-02-25T21:46:24.165Z,99.90
2019-02-25T21:48:54.877Z,99.90
2019-02-25T21:51:30.331Z,99.90
2019-02-25T21:53:58.117Z,99.90
2019-02-25T21:56:27.980Z,99.90
2019-02-25T21:58:57.396Z,99.90
2019-02-25T22:01:26.748Z,99.90
2019-02-25T22:03:56.030Z,99.90
2019-02-25T22:06:26.842Z,99.90
2019-02-25T22:08:58.478Z,99.90
2019-02-25T22:11:27.670Z,99.90
2019-02-25T22:13:56.992Z,99.90
2019-02-25T22:16:27.858Z,99.90
2019-02-25T22:18:58.777Z,99.90
2019-02-25T22:21:28.200Z,99.90
2019-02-25T22:24:02.650Z,99.90
2019-02-25T22:26:30.803Z,99.90
2019-02-25T22:29:01.723Z,99.90
2019-02-25T22:31:32.372Z,99.90
2019-02-25T22:34:01.689Z,99.90
2019-02-25T22:36:31.066Z,99.90
2019-02-25T22:39:01.889Z,99.90
2019-02-25T22:41:31.477Z,99.90
2019-02-25T22:44:02.029Z,99.90
2019-02-25T22:46:32.546Z,99.90
2019-02-25T22:49:04.917Z,99.90
2019-02-25T22:51:35.345Z,99.90
2019-02-25T22:54:06.283Z,99.90
2019-02-25T22:56:35.976Z,99.90
2019-02-25T22:59:05.345Z,99.90
2019-02-25T23:01:36.867Z,99.90
2019-02-25T23:04:05.772Z,99.90
2019-02-25T23:06:39.617Z,99.90
2019-02-25T23:09:12.264Z,99.90
2019-02-25T23:11:41.768Z,99.90
2019-02-25T23:14:11.479Z,99.90
2019-02-25T23:16:43.224Z,99.90
2019-02-25T23:19:13.736Z,99.90
2019-02-25T23:21:43.655Z,99.90
2019-02-25T23:24:13.017Z,99.90
2019-02-25T23:26:42.312Z,99.90
2019-02-25T23:29:11.730Z,99.90
2019-02-25T23:31:41.142Z,99.90
2019-02-25T23:34:12.665Z,99.90
2019-02-25T23:36:44.833Z,99.90
2019-02-25T23:39:12.979Z,99.90
2019-02-25T23:41:43.919Z,99.90
2019-02-25T23:44:15.062Z,99.90
2019-02-25T23:46:44.464Z,99.90
2019-02-25T23:49:13.813Z,99.90
2019-02-25T23:51:43.811Z,99.90
2019-02-25T23:54:16.003Z,99.90
2019-02-25T23:56:47.645Z,99.90
2019-02-25T23:59:17.019Z,99.90
